This is the latest recevied weather packets stored in our database for station/object OK1JRA-6. If no packets are shown the sender has not sent any weather packets the latest 10 day(s).
| Time | Temp. | Humidity | Pressure | Rain* | Wind** | Luminosity | Snow |
|---|---|---|---|---|---|---|---|
| 1778168887 | 13.89° C | 64% | 1014.9 hPa | 0 mm | - | - | - |
| 1778168581 | 13.89° C | 62% | 1014.7 hPa | 0 mm | - | - | - |
| 1778168279 | 13.89° C | 63% | 1014.7 hPa | 0 mm | - | - | - |
| 1778168279 | 13.89° C | 63% | 1014.7 hPa | 0 mm | - | - | - |
| 1778168275 | 13.89° C | 63% | 1014.7 hPa | 0 mm | - | - | - |
| 1778167969 | 13.89° C | 63% | 1014.7 hPa | 0 mm | - | - | - |
| 1778167663 | 13.89° C | 63% | 1014.7 hPa | 0 mm | - | - | - |
| 1778167357 | 13.89° C | 64% | 1014.6 hPa | 0 mm | - | - | - |
| 1778166438 | 13.33° C | 63% | 1014.5 hPa | 0 mm | - | - | - |
| 1778166132 | 13.89° C | 62% | 1014.4 hPa | 0 mm | - | - | - |
| 1778165826 | 13.89° C | 63% | 1014.4 hPa | 0 mm | - | - | - |
| 1778165519 | 13.89° C | 65% | 1014.4 hPa | 0 mm | - | - | - |
| 1778165213 | 13.89° C | 65% | 1014.4 hPa | 0 mm | - | - | - |
| 1778164907 | 13.89° C | 64% | 1014.4 hPa | 0 mm | - | - | - |
| 1778164601 | 14.44° C | 65% | 1014.3 hPa | 0 mm | - | - | - |
| 1778164295 | 14.44° C | 66% | 1014.4 hPa | 0 mm | - | - | - |
| 1778163989 | 15° C | 66% | 1014.4 hPa | 0 mm | - | - | - |
| 1778163682 | 15° C | 65% | 1014.3 hPa | 0 mm | - | - | - |
| 1778163376 | 15° C | 65% | 1014.3 hPa | 0 mm | - | - | - |
| 1778163070 | 15° C | 65% | 1014.3 hPa | 0 mm | - | - | - |
| 1778162764 | 15° C | 65% | 1014.3 hPa | 0 mm | - | - | - |
| 1778161845 | 13.89° C | 65% | 1014.4 hPa | 0 mm | - | - | - |
| 1778161539 | 14.44° C | 65% | 1014.3 hPa | 0 mm | - | - | - |
| 1778160621 | 16.11° C | 59% | 1014.2 hPa | 0.25 mm | - | - | - |
| 1778160315 | 16.11° C | 59% | 1014.2 hPa | 0.25 mm | - | - | - |
* Rain latest hour (hover to see other rain measurements)
** Current wind speed in m/s (hover to see current wind gust speed)